Thursday, January 29, 2015
04:19 UTC
  |  Log In   |  Register Free
Airport Search:

Seattle-Tacoma International Airport
(KSEA)

FAA data valid effective January 08, 2015 - March 05, 2015 (unless otherwise noted).

 
 
 
 
 
 
 
 
 
 
 
 
 
 

Current Aviation Weather for Seattle-Tacoma International Airport (KSEA)

The most recent METAR observation for KSEA was updated at: 0317
METAR Summary (Translated METAR)
KSEA
290253Z 03007KT 10SM FEW250 08/05 A3036 RMK AO2 SLP290 T00780050 58000
KRNT
290253Z 30003KT 10SM CLR 07/06 A3036 RMK AO2 SLP286 T00720056 50002
(4.6 nm NE from KSEA)
KBFI
290353Z 00000KT 10SM CLR 09/05 A3037 RMK AO2 SLP282 T00890050
(4.9 nm NE from KSEA)
TAF Summary (Translated TAF)
KSEA
290310Z 2903/3006 03006KT P6SM SCT200 FM290900 03005KT P6SM BKN060 BKN100 FM291800 02005KT P6SM SCT060 BKN100 FM292000 36005KT P6SM SCT250
KBFI
(4.9 nm NE from KSEA)
281902Z 2819/2918 02003KT P6SM SCT018 OVC040 FM282100 34004KT P6SM BKN045 FM290000 35004KT P6SM SCT050 BKN100 FM290400 00000KT P6SM OVC050
  Airport Weather Conditions for KSEA

 Current Weather at SEA
44° F
A Few Clouds
North winds at 4.6 mph
SEA NOAA Radar

Pressure: 30.36 in
Humidity: 85%
Wind: North at 4.6 MPH (4 KT)
Dew Point: 39.9°F
Visibility: 10.00 mi


Airport Weather Forecast for KSEA

Translated METAR and TAF for KSEA
Translated METAR for KSEA (0420 UTC 29 January 2015)
found at http://aviationweather.gov/adds/metars/
 
METAR text: KSEA 290353Z 34004KT 10SM FEW250 07/04 A3036 RMK AO2 SLP291 T00670044
Conditions at: KSEA (SEATTLE/METRO , WA, US) observed 0353 UTC 29 January 2015
Temperature: 6.7°C (44°F)
Dewpoint: 4.4°C (40°F) [RH = 85%]
Pressure (altimeter): 30.36 inches Hg (1028.2 mb)
[Sea-level pressure: 1029.1 mb]
Winds: from the NNW (340 degrees) at 5 MPH (4 knots; 2.1 m/s)
Visibility: 10 or more miles (16+ km)
Ceiling: at least 12,000 feet AGL
Clouds: few clouds at 25000 feet AGL
Weather: no significant weather observed at this time
Translated TAF for KSEA
Forecast for: KSEA (SEATTLE/METRO , WA, US)
TAF Text: KSEA 290310Z 2903/3006 03006KT P6SM SCT200
Forecast period: 0300 to 0900 UTC 29 January 2015
Forecast type: FROM: standard forecast or significant change
Winds: from the NNE (30 degrees) at 7 MPH (6 knots; 3.1 m/s)
Visibility: 6 or more miles (10+ km)
Clouds: scattered clouds at 20000 feet AGL
Weather: no significant weather forecast for this period
TAF Text: FM290900 03005KT P6SM BKN060 BKN100
Forecast period: 0900 to 1800 UTC 29 January 2015
Forecast type: FROM: standard forecast or significant change
Winds: from the NNE (30 degrees) at 6 MPH (5 knots; 2.6 m/s)
Visibility: 6 or more miles (10+ km)
Ceiling: 6000 feet AGL
Clouds: broken clouds at 6000 feet AGL
broken clouds at 10000 feet AGL
Weather: no significant weather forecast for this period
TAF Text: FM291800 02005KT P6SM SCT060 BKN100
Forecast period: 1800 to 2000 UTC 29 January 2015
Forecast type: FROM: standard forecast or significant change
Winds: from the NNE (20 degrees) at 6 MPH (5 knots; 2.6 m/s)
Visibility: 6 or more miles (10+ km)
Ceiling: 10000 feet AGL
Clouds: scattered clouds at 6000 feet AGL
broken clouds at 10000 feet AGL
Weather: no significant weather forecast for this period
TAF Text: FM292000 36005KT P6SM SCT250
Forecast period: 2000 UTC 29 January 2015 to 0600 UTC 30 January 2015
Forecast type: FROM: standard forecast or significant change
Winds: from the N (360 degrees) at 6 MPH (5 knots; 2.6 m/s)
Visibility: 6 or more miles (10+ km)
Clouds: scattered clouds at 25000 feet AGL
Weather: no significant weather forecast for this period

Find All Airport Services Find A Hotel Find A Rental Car Find A Golf Course Find A Restaurant $100 Hamburger



FBO's on the Field
FBO Company Facility Photos Services Transportation Aviation Fuel Prices: Prices include tax
Catering Weather Repair Courtesy Rental Type 100LL JetA JetA+ MOGAS 8087
 
Aircraft Service Intl.

This FBO has not yet been rated
FS:Avfuel
Last Updated: Jan-20
Login to update fuel prices
SS:
Contact Aircraft Service Intl.More FBO Information
 
Add another FBO Facility Photos Catering Weather Repair Courtesy Rental Type 100LL JetA JetA+ MOGAS 8087
Services Transportation Aviation Fuel Prices: Prices include tax


model-print
model-print
model-print
model-print